< Cyclone 198508 1985 Season Cyclone 198510 >
Cyclone 198509 (JACOB)
General InformationTrack Information on Google MapsDetailed Wind InformationList of All Images || ResourceGoogle EarthGE AnimationAtom FeedGeoJSON
Detalied Best Track (Time Zone = UTC)
Year Month Day Hour Lat. Long. Pressure (hPa) Wind (kt) Class Image Chart
1985 2 15 00 -8.9 127.6 1003 23 2 Image --
1985 2 15 06 -10.0 127.3 1001 27 2 Image --
1985 2 15 12 -10.9 127.1 1000 31 2 Image --
1985 2 15 18 -11.6 126.7 1000 31 2 Image --
1985 2 16 00 -12.0 126.1 999 31 2 Image --
1985 2 16 06 -12.2 125.3 998 33 2 Image --
1985 2 16 12 -12.4 124.4 997 35 3 Image --
1985 2 16 18 -12.5 123.3 995 37 3 Image --
1985 2 17 00 -12.6 122.1 994 41 3 Image --
1985 2 17 06 -13.0 121.2 992 43 3 Image --
1985 2 17 12 -13.3 120.4 990 47 3 Image --
1985 2 17 18 -13.7 119.7 988 51 4 Image --
1985 2 18 00 -14.0 118.9 984 54 4 Image --
1985 2 18 06 -14.3 118.1 980 60 4 Image --
1985 2 18 12 -14.6 117.4 976 66 5 Image --
1985 2 18 18 -14.7 116.7 966 78 5 Image --
1985 2 19 00 -14.9 116.1 963 82 5 Image --
1985 2 19 06 -15.0 115.1 957 88 5 Image --
1985 2 19 12 -15.1 114.7 953 91 5 Image --
1985 2 19 18 -15.3 113.9 952 93 5 Image --
1985 2 20 00 -15.4 113.0 952 93 5 Image --
1985 2 20 06 -15.6 112.2 950 95 5 Image --
1985 2 20 12 -15.6 111.5 951 93 5 Image --
1985 2 20 18 -15.7 110.9 952 93 5 Image --
1985 2 21 00 -15.8 110.1 952 93 5 Image --
1985 2 21 06 -15.8 109.1 952 93 5 Image --
1985 2 21 12 -16.0 107.9 953 93 5 Image --
1985 2 21 18 -16.2 106.5 953 93 5 Image --
1985 2 22 00 -16.8 105.3 954 91 5 Image --
1985 2 22 06 -17.4 104.3 954 91 5 Image --
1985 2 22 12 -17.9 103.4 955 89 5 Image --
1985 2 22 18 -18.2 102.8 955 89 5 Image --
1985 2 23 00 -18.6 102.2 956 89 5 Image --
1985 2 23 06 -19.2 101.5 957 88 5 Image --
1985 2 23 12 -20.0 100.4 958 86 5 Image --
1985 2 23 18 -20.7 99.4 959 68 5 Image --
1985 2 24 00 -21.7 98.7 960 84 5 Image --
1985 2 24 06 -22.6 97.5 963 81 0 Image --
1985 2 24 12 -23.6 96.7 966 78 5 Image --
1985 2 24 18 -24.8 96.1 970 74 5 Image --
1985 2 25 00 -26.0 95.8 976 66 5 Image --
1985 2 25 06 -27.4 95.5 979 62 4 Image --
1985 2 25 12 -28.9 95.4 982 58 4 Image --
1985 2 25 18 -30.6 95.6 985 54 4 Image --
1985 2 26 00 -32.4 96.1 988 51 4 Image --
1985 2 26 06 -34.3 97.4 992 43 3 Image --
1985 2 26 12 -35.4 98.8 994 41 3 Image --
1985 2 26 18 -36.5 100.2 995 39 3 Image --
1985 2 27 00 -37.3 101.7 996 37 3 Image --
1985 2 27 06 -38.1 103.2 997 35 3 Image --
1985 2 27 12 -38.7 105.6 998 33 2 Image --
1985 2 27 18 -39.1 108.5 999 31 2 Image --
1985 2 28 00 -39.1 111.4 1002 25 2 Image --
< Cyclone 198508 1985 Season Cyclone 198510 >

Help